Time;durP1;ratioP1;P1;durP2;ratioP2;P2;SDS_P1;SDS_P2;PMS_P1;PMS_P2;Temp;Humidity;BMP_temperature;BMP_pressure;BME280_temperature;BME280_humidity;BME280_pressure;Samples;Min_cycle;Max_cycle;Signal;HPM_P1;HPM_P2
2023/08/17 00:01:39;;;;;;;4.13;2.60;;;17.90;99.90;;;;;;5061023;28;20104;-76
2023/08/17 00:04:05;;;;;;;4.15;2.50;;;17.90;99.90;;;;;;5074640;28;20352;-76
2023/08/17 00:06:31;;;;;;;3.67;2.30;;;17.80;99.90;;;;;;5059438;28;20234;-74
2023/08/17 00:08:57;;;;;;;3.55;2.50;;;17.90;99.90;;;;;;5075029;28;20042;-76
2023/08/17 00:11:22;;;;;;;4.55;2.60;;;17.90;99.90;;;;;;5059287;28;20024;-77
2023/08/17 00:13:48;;;;;;;4.05;2.47;;;17.90;99.90;;;;;;5063085;28;20027;-77
2023/08/17 00:16:14;;;;;;;2.90;2.30;;;17.80;99.90;;;;;;5062186;28;20107;-76
2023/08/17 00:18:40;;;;;;;3.55;2.58;;;17.80;99.90;;;;;;5060654;28;20560;-75
2023/08/17 00:21:05;;;;;;;6.25;2.60;;;17.90;99.90;;;;;;5061401;28;20023;-75
2023/08/17 00:23:31;;;;;;;4.88;2.30;;;17.90;99.90;;;;;;5060875;28;20107;-76
2023/08/17 00:25:57;;;;;;;3.88;2.22;;;17.80;99.90;;;;;;5077510;28;20031;-76
2023/08/17 00:28:22;;;;;;;4.78;2.85;;;17.90;99.90;;;;;;5032746;28;20063;-77
2023/08/17 00:30:48;;;;;;;5.18;2.50;;;17.80;99.90;;;;;;5055545;28;20016;-78
2023/08/17 00:33:14;;;;;;;4.47;2.45;;;17.80;99.90;;;;;;5058291;28;20116;-75
2023/08/17 00:35:40;;;;;;;3.28;2.38;;;17.90;99.90;;;;;;5075996;28;20212;-77
2023/08/17 00:38:05;;;;;;;2.40;2.20;;;17.80;99.90;;;;;;5077224;28;20124;-78
2023/08/17 00:40:31;;;;;;;6.10;2.42;;;17.90;99.90;;;;;;5058644;28;20330;-76
2023/08/17 00:42:57;;;;;;;5.68;1.90;;;17.80;99.90;;;;;;5046884;28;20031;-78
2023/08/17 00:45:23;;;;;;;3.78;2.30;;;17.70;99.90;;;;;;5079609;28;20207;-76
2023/08/17 00:47:49;;;;;;;4.18;2.00;;;17.80;99.90;;;;;;5062144;28;20036;-77
2023/08/17 00:50:15;;;;;;;3.50;1.92;;;17.80;99.90;;;;;;5061144;28;20125;-76
2023/08/17 00:52:42;;;;;;;2.75;2.03;;;17.80;99.90;;;;;;5042409;28;20036;-75
2023/08/17 00:55:11;;;;;;;4.13;2.00;;;17.80;99.90;;;;;;5056461;28;20103;-77
2023/08/17 00:57:37;;;;;;;4.95;2.20;;;17.90;99.90;;;;;;5055664;28;20108;-75
2023/08/17 01:00:04;;;;;;;6.15;2.05;;;17.90;99.90;;;;;;5016977;28;20032;-77
2023/08/17 01:02:31;;;;;;;5.38;2.53;;;17.80;99.90;;;;;;5038426;28;20086;-78
2023/08/17 01:04:56;;;;;;;4.40;2.50;;;17.80;99.90;;;;;;5025906;28;20039;-77
2023/08/17 01:07:22;;;;;;;3.63;2.30;;;17.80;99.90;;;;;;5012307;28;20029;-77
2023/08/17 01:09:48;;;;;;;2.53;1.95;;;17.80;99.90;;;;;;5056343;28;20032;-77
2023/08/17 01:12:24;;;;;;;5.85;2.25;;;17.80;99.90;;;;;;5043575;28;20043;-76
2023/08/17 01:14:56;;;;;;;3.65;2.20;;;17.70;99.90;;;;;;5058906;28;20048;-76
2023/08/17 01:17:28;;;;;;;5.43;2.40;;;17.70;99.90;;;;;;5045348;28;20086;-76
2023/08/17 01:19:54;;;;;;;4.13;2.40;;;17.80;99.90;;;;;;5044269;28;20028;-76
2023/08/17 01:22:24;;;;;;;4.80;2.35;;;17.70;99.90;;;;;;5043408;28;20274;-76
2023/08/17 01:24:50;;;;;;;5.85;2.58;;;17.70;99.90;;;;;;5061409;28;20055;-75
2023/08/17 01:27:16;;;;;;;6.10;2.30;;;17.70;99.90;;;;;;5029073;28;20044;-77
2023/08/17 01:29:42;;;;;;;5.90;2.60;;;17.70;99.90;;;;;;5045857;28;20077;-75
2023/08/17 01:32:16;;;;;;;6.65;2.50;;;17.70;99.90;;;;;;5043189;28;20020;-76
2023/08/17 01:34:50;;;;;;;4.07;2.65;;;17.60;99.90;;;;;;5060438;28;20025;-76
2023/08/17 01:37:20;;;;;;;6.57;2.93;;;17.60;99.90;;;;;;5061757;28;20093;-76
2023/08/17 01:39:50;;;;;;;5.43;2.40;;;17.50;99.90;;;;;;5058012;28;20286;-77
2023/08/17 01:42:17;;;;;;;7.10;2.45;;;17.50;99.90;;;;;;5061848;28;20046;-74
2023/08/17 01:44:42;;;;;;;3.78;2.55;;;17.50;99.90;;;;;;5045532;28;20409;-75
2023/08/17 01:47:09;;;;;;;5.55;2.55;;;17.60;99.90;;;;;;5061455;28;20040;-75
2023/08/17 01:49:35;;;;;;;4.53;3.05;;;17.60;99.90;;;;;;5044130;28;20048;-76
2023/08/17 01:52:01;;;;;;;4.45;3.10;;;17.50;99.90;;;;;;5044788;28;20048;-76
2023/08/17 01:54:26;;;;;;;5.05;2.67;;;17.60;99.90;;;;;;5060930;28;20097;-78
2023/08/17 01:56:52;;;;;;;4.70;2.40;;;17.60;99.90;;;;;;5029236;28;20032;-78
2023/08/17 01:59:18;;;;;;;6.03;2.72;;;17.70;99.90;;;;;;5041935;28;20039;-78
2023/08/17 02:01:43;;;;;;;4.18;2.00;;;17.60;99.90;;;;;;5044501;28;20033;-77
2023/08/17 02:04:09;;;;;;;5.28;2.40;;;17.50;99.90;;;;;;5057826;28;20028;-77
2023/08/17 02:06:35;;;;;;;6.03;2.50;;;17.50;99.90;;;;;;5027658;28;20033;-76
2023/08/17 02:09:00;;;;;;;4.65;2.35;;;17.50;99.90;;;;;;5048602;28;20071;-76
2023/08/17 02:11:26;;;;;;;7.47;3.13;;;17.40;99.90;;;;;;5028907;28;20044;-76
2023/08/17 02:13:52;;;;;;;4.68;2.35;;;17.50;99.90;;;;;;5046789;28;20029;-79
2023/08/17 02:16:18;;;;;;;5.82;2.67;;;17.40;99.90;;;;;;5049049;28;20020;-77
2023/08/17 02:18:44;;;;;;;4.15;2.80;;;17.40;99.90;;;;;;5045661;28;20046;-77
2023/08/17 02:21:09;;;;;;;7.15;2.85;;;17.30;99.90;;;;;;5013491;28;20045;-77
2023/08/17 02:23:35;;;;;;;6.65;3.00;;;17.20;99.90;;;;;;5009684;28;20040;-77
2023/08/17 02:26:01;;;;;;;3.65;2.63;;;17.30;99.90;;;;;;5060969;28;20425;-76
2023/08/17 02:28:26;;;;;;;7.43;2.80;;;17.30;99.90;;;;;;5045975;28;20033;-76
2023/08/17 02:30:59;;;;;;;3.53;2.45;;;17.20;99.90;;;;;;5078992;28;20032;-77
2023/08/17 02:33:24;;;;;;;7.50;2.67;;;17.30;99.90;;;;;;5045515;28;20025;-77
2023/08/17 02:35:51;;;;;;;4.65;2.28;;;17.10;99.90;;;;;;5029330;28;20079;-78
2023/08/17 02:38:17;;;;;;;4.25;2.33;;;17.20;99.90;;;;;;5045441;28;20119;-77
2023/08/17 02:40:43;;;;;;;5.57;3.00;;;17.30;99.90;;;;;;5059429;28;20327;-76
2023/08/17 02:43:08;;;;;;;7.45;2.85;;;17.30;99.90;;;;;;5048706;28;20048;-77
2023/08/17 02:45:34;;;;;;;5.22;2.88;;;17.50;99.90;;;;;;5032806;28;20083;-79
2023/08/17 02:48:00;;;;;;;3.35;2.70;;;17.40;99.90;;;;;;5065378;28;20103;-80
2023/08/17 02:50:26;;;;;;;5.60;2.92;;;17.50;99.90;;;;;;5048381;28;20025;-77
2023/08/17 02:52:51;;;;;;;5.00;2.75;;;17.50;99.90;;;;;;5051969;28;20036;-80
2023/08/17 02:55:17;;;;;;;6.07;3.05;;;17.50;99.90;;;;;;5084882;28;20036;-77
2023/08/17 02:57:43;;;;;;;5.10;2.70;;;17.50;99.90;;;;;;5040038;28;20094;-77
2023/08/17 03:00:09;;;;;;;5.57;3.17;;;17.60;99.90;;;;;;5051616;28;20074;-78
2023/08/17 03:02:34;;;;;;;5.97;2.63;;;17.50;99.90;;;;;;5085049;28;20311;-77
2023/08/17 03:05:00;;;;;;;4.03;2.83;;;17.40;99.90;;;;;;5068712;28;20051;-77
2023/08/17 03:07:26;;;;;;;6.57;2.90;;;17.50;99.90;;;;;;5047143;28;20062;-76
2023/08/17 03:09:51;;;;;;;5.07;3.10;;;17.50;99.90;;;;;;5042782;28;20064;-77
2023/08/17 03:12:17;;;;;;;3.65;2.42;;;17.40;99.90;;;;;;5050958;28;20024;-76
2023/08/17 03:14:43;;;;;;;7.45;3.33;;;17.40;99.90;;;;;;5081269;28;20035;-77
2023/08/17 03:17:08;;;;;;;4.72;2.90;;;17.30;99.90;;;;;;5081545;28;20023;-78
2023/08/17 03:19:34;;;;;;;4.82;2.63;;;17.30;99.90;;;;;;5061668;28;20251;-77
2023/08/17 03:21:59;;;;;;;4.20;2.70;;;17.30;99.90;;;;;;5048748;28;20073;-76
2023/08/17 03:24:25;;;;;;;5.25;3.00;;;17.40;99.90;;;;;;5076107;28;20032;-76
2023/08/17 03:26:51;;;;;;;6.32;2.80;;;17.40;99.90;;;;;;5080214;28;20044;-76
2023/08/17 03:29:17;;;;;;;5.82;3.05;;;17.40;99.90;;;;;;5065269;28;20046;-77
2023/08/17 03:31:42;;;;;;;5.55;2.78;;;17.60;99.90;;;;;;5048164;28;20027;-77
2023/08/17 03:34:08;;;;;;;5.10;2.83;;;17.50;99.90;;;;;;5043258;28;20024;-76
2023/08/17 03:36:34;;;;;;;6.75;2.85;;;17.50;99.90;;;;;;5041227;28;20240;-76
2023/08/17 03:38:59;;;;;;;7.88;3.35;;;17.40;99.90;;;;;;5078713;28;20032;-77
2023/08/17 03:41:25;;;;;;;4.95;2.67;;;17.40;99.90;;;;;;5076508;28;20062;-78
2023/08/17 03:43:51;;;;;;;6.40;2.83;;;17.40;99.90;;;;;;5046836;28;20024;-76
2023/08/17 03:46:16;;;;;;;5.47;2.83;;;17.40;99.90;;;;;;5057911;28;20230;-77
2023/08/17 03:48:42;;;;;;;7.07;2.63;;;17.40;99.90;;;;;;5052202;28;20612;-77
2023/08/17 03:51:08;;;;;;;4.85;2.80;;;17.30;99.90;;;;;;5074949;28;20085;-76
2023/08/17 03:53:33;;;;;;;6.28;2.78;;;17.30;99.90;;;;;;5044595;28;20129;-78
2023/08/17 03:55:59;;;;;;;5.13;3.15;;;17.20;99.90;;;;;;5076994;28;20032;-77
2023/08/17 03:58:26;;;;;;;4.53;2.70;;;17.20;99.90;;;;;;5021703;28;20193;-77
2023/08/17 04:00:53;;;;;;;6.68;2.45;;;17.20;99.90;;;;;;5076047;28;20198;-77
2023/08/17 04:03:22;;;;;;;5.82;2.58;;;17.20;99.90;;;;;;5059107;28;20196;-78
2023/08/17 04:05:48;;;;;;;3.08;2.70;;;17.30;99.90;;;;;;5079725;28;20043;-77
2023/08/17 04:08:13;;;;;;;6.80;2.88;;;17.30;99.90;;;;;;5059062;28;20226;-78
2023/08/17 04:10:39;;;;;;;5.82;2.72;;;17.20;99.90;;;;;;5073042;28;20024;-76
2023/08/17 04:13:05;;;;;;;5.57;2.95;;;17.20;99.90;;;;;;5078747;28;20066;-76
2023/08/17 04:15:30;;;;;;;6.88;3.28;;;17.30;99.90;;;;;;5061643;28;20027;-78
2023/08/17 04:17:56;;;;;;;2.58;2.13;;;17.30;99.90;;;;;;5045087;28;20346;-76
2023/08/17 04:20:22;;;;;;;4.53;2.55;;;17.30;99.90;;;;;;5077260;28;20306;-76
2023/08/17 04:22:48;;;;;;;4.90;2.40;;;17.40;99.90;;;;;;5060801;28;20032;-76
2023/08/17 04:25:14;;;;;;;3.60;2.78;;;17.40;99.90;;;;;;5072804;28;20159;-75
2023/08/17 04:27:40;;;;;;;3.95;2.35;;;17.30;99.90;;;;;;5039199;28;20509;-76
2023/08/17 04:30:06;;;;;;;4.32;2.75;;;17.40;99.90;;;;;;5076005;28;20054;-76
2023/08/17 04:32:32;;;;;;;5.07;2.70;;;17.30;99.90;;;;;;5041559;28;20034;-77
2023/08/17 04:34:57;;;;;;;11.63;2.58;;;17.40;99.90;;;;;;5056655;28;20060;-77
2023/08/17 04:37:23;;;;;;;2.95;2.20;;;17.40;99.90;;;;;;5042856;28;20040;-76
2023/08/17 04:39:49;;;;;;;5.45;2.85;;;17.30;99.90;;;;;;5060492;28;20095;-76
2023/08/17 04:42:15;;;;;;;4.15;2.90;;;17.40;99.90;;;;;;5060749;28;20028;-75
2023/08/17 04:44:41;;;;;;;5.00;2.63;;;17.30;99.90;;;;;;5077287;28;20042;-75
2023/08/17 04:47:06;;;;;;;6.00;2.70;;;17.20;99.90;;;;;;5059403;28;20044;-77
2023/08/17 04:49:32;;;;;;;4.03;2.42;;;17.40;99.90;;;;;;5058755;28;20055;-78
2023/08/17 04:51:58;;;;;;;4.72;2.38;;;17.20;99.90;;;;;;5034105;28;20040;-76
2023/08/17 04:54:23;;;;;;;7.95;2.65;;;17.20;99.90;;;;;;5038710;28;20032;-78
2023/08/17 04:56:49;;;;;;;5.20;2.72;;;17.30;99.90;;;;;;5075727;28;20440;-76
2023/08/17 04:59:15;;;;;;;4.15;2.50;;;17.40;99.90;;;;;;5059067;28;20250;-76
2023/08/17 05:01:40;;;;;;;3.42;2.33;;;17.30;99.90;;;;;;5060264;28;20082;-78
2023/08/17 05:04:06;;;;;;;5.30;2.30;;;17.30;99.90;;;;;;5078923;28;20031;-78
2023/08/17 05:06:32;;;;;;;8.03;3.10;;;17.30;99.90;;;;;;5033099;28;20016;-77
2023/08/17 05:08:58;;;;;;;4.72;2.28;;;17.30;99.90;;;;;;5059708;28;20363;-76
2023/08/17 05:11:24;;;;;;;4.40;2.35;;;17.20;99.90;;;;;;5076709;28;20094;-77
2023/08/17 05:13:49;;;;;;;5.03;2.53;;;17.30;99.90;;;;;;5056584;28;20214;-76
2023/08/17 05:16:15;;;;;;;4.63;2.42;;;17.30;99.90;;;;;;5076352;28;20074;-76
2023/08/17 05:18:41;;;;;;;5.82;2.28;;;17.30;99.90;;;;;;5058157;28;20037;-77
2023/08/17 05:21:06;;;;;;;4.53;2.20;;;17.40;99.90;;;;;;5076538;28;20036;-76
2023/08/17 05:23:32;;;;;;;3.80;2.38;;;17.40;99.90;;;;;;5074551;28;20245;-77
2023/08/17 05:25:58;;;;;;;4.40;2.00;;;17.50;99.90;;;;;;5073979;28;20031;-77
2023/08/17 05:28:24;;;;;;;7.53;2.42;;;17.60;99.90;;;;;;5055836;28;20075;-76
2023/08/17 05:30:50;;;;;;;4.00;2.20;;;17.60;99.90;;;;;;5058051;28;20090;-77
2023/08/17 05:33:16;;;;;;;3.53;2.20;;;17.50;99.90;;;;;;5032510;28;20029;-76
2023/08/17 05:35:42;;;;;;;3.83;2.22;;;17.70;99.90;;;;;;5074194;28;20028;-77
2023/08/17 05:38:09;;;;;;;3.53;1.88;;;17.60;99.90;;;;;;5058233;28;20075;-77
2023/08/17 05:40:35;;;;;;;4.22;2.40;;;17.80;99.90;;;;;;5073345;28;20199;-77
2023/08/17 05:43:01;;;;;;;4.40;2.40;;;17.90;99.90;;;;;;5060345;28;20031;-74
2023/08/17 05:45:27;;;;;;;6.22;2.30;;;17.80;99.90;;;;;;5056285;28;20394;-78
2023/08/17 05:47:52;;;;;;;6.07;2.13;;;17.80;99.90;;;;;;5070807;28;20036;-77
2023/08/17 05:50:18;;;;;;;6.50;2.50;;;17.80;99.90;;;;;;5076126;28;20099;-77
2023/08/17 05:52:44;;;;;;;4.45;2.25;;;18.00;99.90;;;;;;5074126;28;20064;-77
2023/08/17 05:55:10;;;;;;;5.18;2.80;;;18.00;99.90;;;;;;5076203;28;20243;-77
2023/08/17 05:57:35;;;;;;;3.88;2.35;;;18.10;99.90;;;;;;5036112;28;20043;-76
2023/08/17 06:00:01;;;;;;;6.40;2.67;;;18.20;99.90;;;;;;5078415;28;20038;-77
2023/08/17 06:02:27;;;;;;;5.57;2.33;;;18.20;99.90;;;;;;5079332;28;20028;-77
2023/08/17 06:04:53;;;;;;;3.83;2.00;;;18.30;99.90;;;;;;5076296;28;20024;-77
2023/08/17 06:07:18;;;;;;;6.90;2.20;;;18.30;99.90;;;;;;5062622;28;20043;-77
2023/08/17 06:09:44;;;;;;;6.05;2.35;;;18.30;99.90;;;;;;5063586;28;20229;-77
2023/08/17 06:12:10;;;;;;;5.80;2.15;;;18.50;99.90;;;;;;5064000;28;20215;-77
2023/08/17 06:14:35;;;;;;;3.95;1.80;;;18.40;99.90;;;;;;5062382;28;20034;-77
2023/08/17 06:17:02;;;;;;;5.03;2.22;;;18.50;99.90;;;;;;5082782;28;20101;-76
2023/08/17 06:19:28;;;;;;;3.85;2.15;;;18.70;99.90;;;;;;5061491;28;20036;-77
2023/08/17 06:21:54;;;;;;;5.22;2.22;;;18.60;99.90;;;;;;5046194;28;20330;-77
2023/08/17 06:24:20;;;;;;;4.50;2.13;;;18.80;99.90;;;;;;5035880;28;20032;-76
2023/08/17 06:26:45;;;;;;;4.65;2.38;;;18.80;99.90;;;;;;5047571;28;20032;-76
2023/08/17 06:29:11;;;;;;;5.45;2.00;;;18.70;99.90;;;;;;5062054;28;20028;-77
2023/08/17 06:31:37;;;;;;;4.88;2.17;;;18.80;99.90;;;;;;5061891;28;20087;-77
2023/08/17 06:34:03;;;;;;;5.40;2.10;;;18.90;99.90;;;;;;5065653;28;20055;-76
2023/08/17 06:36:32;;;;;;;7.00;2.63;;;18.90;99.90;;;;;;5032420;28;21249;-75
2023/08/17 06:38:59;;;;;;;5.57;2.05;;;19.10;99.90;;;;;;5060834;28;20027;-77
2023/08/17 06:41:24;;;;;;;6.10;2.00;;;18.90;99.90;;;;;;5075785;28;20031;-77
2023/08/17 06:43:51;;;;;;;5.13;2.22;;;19.10;99.90;;;;;;5083833;28;20036;-77
2023/08/17 06:46:16;;;;;;;3.88;1.80;;;19.10;99.90;;;;;;5101509;28;20109;-77
2023/08/17 06:48:43;;;;;;;4.47;1.90;;;19.20;99.90;;;;;;5063426;28;20040;-76
2023/08/17 06:51:09;;;;;;;5.45;1.50;;;19.20;99.90;;;;;;5083133;28;20028;-77
2023/08/17 06:53:34;;;;;;;5.22;1.80;;;19.40;99.90;;;;;;5066763;28;20196;-76
2023/08/17 06:56:00;;;;;;;4.05;1.75;;;19.20;99.90;;;;;;5056006;28;20048;-77
2023/08/17 06:58:26;;;;;;;3.50;1.67;;;19.10;99.90;;;;;;5076055;28;20089;-77
2023/08/17 07:00:51;;;;;;;5.15;1.58;;;19.10;99.90;;;;;;5061743;28;20024;-76
2023/08/17 07:03:17;;;;;;;2.88;1.42;;;19.10;99.90;;;;;;5082933;28;20308;-77
2023/08/17 07:05:43;;;;;;;3.90;1.35;;;19.10;99.90;;;;;;5047066;28;20035;-77
2023/08/17 07:08:09;;;;;;;4.72;1.80;;;19.00;99.90;;;;;;5032743;28;20278;-79
2023/08/17 07:10:35;;;;;;;3.42;1.50;;;19.10;99.90;;;;;;5051129;28;20029;-75
2023/08/17 07:13:03;;;;;;;2.55;1.40;;;19.10;99.90;;;;;;5084167;28;20036;-76
2023/08/17 07:15:29;;;;;;;1.77;1.45;;;19.00;99.90;;;;;;5046401;28;20020;-77
2023/08/17 07:17:55;;;;;;;4.82;1.55;;;19.10;99.90;;;;;;5076841;28;20091;-75
2023/08/17 07:20:21;;;;;;;4.40;1.35;;;19.00;99.90;;;;;;5064613;28;20047;-75
2023/08/17 07:22:47;;;;;;;3.15;1.40;;;19.20;99.90;;;;;;5060633;28;20032;-78
2023/08/17 07:25:13;;;;;;;2.38;1.27;;;19.20;99.90;;;;;;5062624;28;20028;-77
2023/08/17 07:27:39;;;;;;;2.75;1.42;;;19.20;99.90;;;;;;5060294;28;20032;-76
2023/08/17 07:30:09;;;;;;;2.10;1.27;;;19.40;99.90;;;;;;5059662;28;20344;-77
2023/08/17 07:32:35;;;;;;;1.90;1.20;;;19.40;99.90;;;;;;5062587;28;20341;-77
2023/08/17 07:35:00;;;;;;;1.33;1.20;;;19.40;99.90;;;;;;5073903;28;20032;-77
2023/08/17 07:37:33;;;;;;;2.50;1.25;;;19.40;99.90;;;;;;5079631;28;20031;-76
2023/08/17 07:39:59;;;;;;;3.10;1.33;;;19.30;99.90;;;;;;5059120;28;20032;-77
2023/08/17 07:42:25;;;;;;;3.80;1.65;;;19.40;99.90;;;;;;5057422;28;20046;-76
2023/08/17 07:44:50;;;;;;;5.20;1.17;;;19.50;99.90;;;;;;5076705;28;20035;-77
2023/08/17 07:47:16;;;;;;;3.13;1.00;;;19.50;99.90;;;;;;5060475;28;20032;-77
2023/08/17 07:49:42;;;;;;;3.53;1.27;;;19.70;99.90;;;;;;5044969;28;20020;-76
2023/08/17 07:52:08;;;;;;;3.55;1.40;;;19.60;99.90;;;;;;5030910;28;20055;-78
2023/08/17 07:54:33;;;;;;;3.47;1.40;;;19.60;99.90;;;;;;5074811;28;20035;-77
2023/08/17 07:56:59;;;;;;;3.55;1.23;;;19.70;99.90;;;;;;5076321;28;20039;-77
2023/08/17 07:59:25;;;;;;;2.28;1.17;;;19.70;99.90;;;;;;5077888;28;20024;-77
2023/08/17 08:01:50;;;;;;;3.92;1.38;;;19.80;99.90;;;;;;5039701;28;20032;-77
2023/08/17 08:04:16;;;;;;;5.47;1.60;;;19.70;99.90;;;;;;5061242;28;20032;-77
2023/08/17 08:06:42;;;;;;;3.20;1.30;;;19.60;99.90;;;;;;5076901;28;20040;-78
2023/08/17 08:09:08;;;;;;;2.45;1.27;;;19.50;99.90;;;;;;5078066;28;20091;-76
2023/08/17 08:11:34;;;;;;;4.15;1.35;;;19.50;99.90;;;;;;5059647;28;20099;-78
2023/08/17 08:14:00;;;;;;;2.30;1.35;;;19.50;99.90;;;;;;5058839;28;20242;-78
2023/08/17 08:16:29;;;;;;;2.80;1.40;;;19.50;99.90;;;;;;5078655;28;20028;-78
2023/08/17 08:18:55;;;;;;;6.05;1.52;;;19.50;99.90;;;;;;5068235;28;20043;-77
2023/08/17 08:21:20;;;;;;;2.55;1.17;;;19.50;99.90;;;;;;5078236;28;20024;-77
2023/08/17 08:23:46;;;;;;;2.42;1.15;;;19.40;99.90;;;;;;5061615;28;20029;-76
2023/08/17 08:26:12;;;;;;;4.10;1.77;;;19.50;99.90;;;;;;5062057;28;20027;-77
2023/08/17 08:28:37;;;;;;;2.85;1.30;;;19.40;99.90;;;;;;5077327;28;20096;-76
2023/08/17 08:31:03;;;;;;;3.22;1.30;;;19.60;99.90;;;;;;5059760;28;20028;-76
2023/08/17 08:33:29;;;;;;;4.97;1.20;;;19.60;99.90;;;;;;5059805;28;21195;-77
2023/08/17 08:35:55;;;;;;;2.15;1.02;;;19.80;99.90;;;;;;5061812;28;20035;-77
2023/08/17 08:38:21;;;;;;;2.13;0.90;;;19.80;99.90;;;;;;5045520;28;20062;-78
2023/08/17 08:40:47;;;;;;;3.00;1.10;;;19.90;99.90;;;;;;5033730;28;20035;-77
2023/08/17 08:43:17;;;;;;;3.22;1.35;;;20.00;99.90;;;;;;5056381;28;20036;-78
2023/08/17 08:45:46;;;;;;;1.75;1.10;;;20.10;99.90;;;;;;5035847;28;20028;-75
2023/08/17 08:48:13;;;;;;;2.20;1.35;;;20.10;99.90;;;;;;5078048;28;20036;-77
2023/08/17 08:50:40;;;;;;;2.47;1.15;;;20.10;99.90;;;;;;5076143;28;20043;-78
2023/08/17 08:53:12;;;;;;;3.83;1.30;;;20.00;99.90;;;;;;5061535;28;20323;-77
2023/08/17 08:55:41;;;;;;;3.50;1.25;;;20.00;99.90;;;;;;5037693;28;20208;-76
2023/08/17 08:58:07;;;;;;;3.63;1.30;;;19.90;99.90;;;;;;5037542;28;20032;-77
2023/08/17 09:00:34;;;;;;;2.90;1.05;;;20.00;99.90;;;;;;5057725;28;20025;-77
2023/08/17 09:03:03;;;;;;;1.55;1.10;;;20.10;99.90;;;;;;5056142;28;20040;-78
2023/08/17 09:05:31;;;;;;;2.83;1.33;;;20.10;99.90;;;;;;5036685;28;20218;-78
2023/08/17 09:07:59;;;;;;;4.05;1.25;;;20.30;99.90;;;;;;5056418;28;20048;-77
2023/08/17 09:10:24;;;;;;;2.42;1.40;;;20.30;99.90;;;;;;5024566;28;20111;-77
2023/08/17 09:12:50;;;;;;;2.78;1.40;;;20.60;99.90;;;;;;5040205;28;20041;-77
2023/08/17 09:15:16;;;;;;;1.55;1.00;;;20.80;99.90;;;;;;5039224;28;20219;-77
2023/08/17 09:17:42;;;;;;;3.05;1.30;;;20.60;99.90;;;;;;5052616;28;20028;-78
2023/08/17 09:20:09;;;;;;;2.63;1.95;;;20.90;99.90;;;;;;5041494;28;20230;-78
2023/08/17 09:22:39;;;;;;;4.07;1.30;;;20.50;99.90;;;;;;5019908;28;20068;-78
2023/08/17 09:25:06;;;;;;;1.45;1.20;;;20.50;99.90;;;;;;5029302;28;20100;-77
2023/08/17 09:27:32;;;;;;;3.40;1.35;;;20.40;99.90;;;;;;5050202;28;20214;-77
2023/08/17 09:30:06;;;;;;;3.53;1.52;;;20.50;99.90;;;;;;5058053;28;20031;-77
2023/08/17 09:32:33;;;;;;;2.00;0.98;;;20.60;99.90;;;;;;5039881;28;20082;-77
2023/08/17 09:35:06;;;;;;;2.65;1.25;;;20.50;99.90;;;;;;5059797;28;20036;-78
2023/08/17 09:37:32;;;;;;;5.32;1.75;;;20.50;99.90;;;;;;5044601;28;20052;-77
2023/08/17 09:39:58;;;;;;;4.07;1.50;;;20.70;99.90;;;;;;5058462;28;20039;-79
2023/08/17 09:42:25;;;;;;;2.40;0.95;;;21.00;99.90;;;;;;5039463;28;20028;-78
2023/08/17 09:44:52;;;;;;;2.65;1.23;;;21.50;99.90;;;;;;5015652;28;20079;-76
2023/08/17 09:47:19;;;;;;;3.15;1.30;;;21.40;99.90;;;;;;5042143;28;20199;-78
2023/08/17 09:49:55;;;;;;;4.45;1.25;;;21.50;99.90;;;;;;5041087;28;20078;-77
2023/08/17 09:52:23;;;;;;;7.45;1.75;;;21.70;99.90;;;;;;5026236;28;20043;-78
2023/08/17 09:54:52;;;;;;;3.40;1.60;;;21.60;99.90;;;;;;5081457;28;20251;-78
2023/08/17 09:57:17;;;;;;;4.22;1.85;;;22.00;99.90;;;;;;5072937;28;20112;-76
2023/08/17 09:59:43;;;;;;;2.97;1.27;;;22.40;99.90;;;;;;5059677;28;20215;-76
2023/08/17 10:02:21;;;;;;;2.03;1.02;;;21.90;99.90;;;;;;5063068;28;20024;-77
2023/08/17 10:04:52;;;;;;;1.40;1.15;;;21.90;99.90;;;;;;5064339;28;20081;-78
2023/08/17 10:07:20;;;;;;;3.65;1.35;;;21.90;99.90;;;;;;5079612;28;20032;-78
2023/08/17 10:09:51;;;;;;;4.10;1.77;;;21.80;99.90;;;;;;5062333;28;20028;-77
2023/08/17 10:12:17;;;;;;;4.60;1.70;;;21.40;99.90;;;;;;5077909;28;20081;-78
2023/08/17 10:14:49;;;;;;;4.05;1.38;;;21.50;99.90;;;;;;5080690;28;20684;-77
2023/08/17 10:17:25;;;;;;;3.85;1.45;;;21.70;99.90;;;;;;5076023;28;20040;-77
2023/08/17 10:19:59;;;;;;;1.92;1.27;;;21.60;99.90;;;;;;5061206;28;20035;-77
2023/08/17 10:22:33;;;;;;;2.97;1.17;;;21.60;99.90;;;;;;5061644;28;20067;-77
2023/08/17 10:25:00;;;;;;;;;;;21.60;99.90;;;;;;5080875;28;20036;-79
2023/08/17 10:27:26;;;;;;;2.03;1.20;;;22.00;99.90;;;;;;5060821;28;19960;-78
2023/08/17 10:29:52;;;;;;;4.90;1.42;;;21.60;99.90;;;;;;5075410;28;20073;-78
2023/08/17 10:32:21;;;;;;;2.35;1.60;;;21.60;99.90;;;;;;5079326;28;20683;-77
2023/08/17 10:34:47;;;;;;;3.38;1.30;;;21.50;99.90;;;;;;5076592;28;20032;-79
2023/08/17 10:37:15;;;;;;;3.40;1.30;;;21.70;99.90;;;;;;5058377;28;20046;-78
2023/08/17 10:39:46;;;;;;;1.60;1.20;;;21.70;99.90;;;;;;5079303;28;20043;-78
2023/08/17 10:42:12;;;;;;;3.35;1.58;;;21.60;99.90;;;;;;5080833;28;20029;-78
2023/08/17 10:44:45;;;;;;;3.55;1.15;;;21.80;99.90;;;;;;5058436;28;20383;-78
2023/08/17 10:47:23;;;;;;;4.47;1.83;;;22.20;99.90;;;;;;5073609;28;20102;-77
2023/08/17 10:49:56;;;;;;;3.95;1.70;;;22.20;99.90;;;;;;5077975;28;20020;-78
2023/08/17 10:52:30;;;;;;;4.15;1.40;;;22.30;99.90;;;;;;5051165;28;20053;-76
2023/08/17 10:54:56;;;;;;;3.88;1.67;;;22.40;99.90;;;;;;5032068;28;20045;-77
2023/08/17 10:57:29;;;;;;;4.30;1.35;;;22.90;99.90;;;;;;5056048;28;20032;-77
2023/08/17 11:00:26;;;;;;;2.85;1.30;;;22.80;99.90;;;;;;5042794;28;20043;-77
2023/08/17 11:03:00;;;;;;;2.58;1.40;;;23.40;99.90;;;;;;5038963;28;20032;-78
2023/08/17 11:05:41;;;;;;;2.80;1.60;;;23.50;99.90;;;;;;5053591;28;20037;-77
2023/08/17 11:08:10;;;;;;;2.58;1.60;;;23.20;99.90;;;;;;5053177;28;20200;-80
2023/08/17 11:10:38;;;;;;;4.32;1.70;;;23.40;99.90;;;;;;5058611;28;20246;-78
2023/08/17 11:13:04;;;;;;;4.13;1.50;;;23.50;99.90;;;;;;5037021;28;20044;-76
2023/08/17 11:15:43;;;;;;;3.10;1.58;;;22.90;99.90;;;;;;5034764;28;20271;-76
2023/08/17 11:18:10;;;;;;;2.45;1.52;;;23.30;99.90;;;;;;5043380;28;20040;-78
2023/08/17 11:20:37;;;;;;;3.25;1.83;;;22.90;99.90;;;;;;5046726;28;20044;-77
2023/08/17 11:23:04;;;;;;;3.25;1.77;;;22.80;99.90;;;;;;5026699;28;20032;-77
2023/08/17 11:25:31;;;;;;;2.60;1.60;;;22.70;99.90;;;;;;5057077;28;20100;-77
2023/08/17 11:27:59;;;;;;;4.38;1.50;;;22.80;99.90;;;;;;5059493;28;20319;-78
2023/08/17 11:30:25;;;;;;;4.60;1.80;;;22.80;99.90;;;;;;5063797;28;20024;-77
2023/08/17 11:32:52;;;;;;;2.88;1.60;;;22.70;99.90;;;;;;5040053;28;20035;-77
2023/08/17 11:35:18;;;;;;;4.50;1.77;;;23.50;99.90;;;;;;5062535;28;20028;-77
2023/08/17 11:37:44;;;;;;;4.50;1.50;;;22.80;99.90;;;;;;5059917;28;20033;-78
2023/08/17 11:40:13;;;;;;;3.60;1.50;;;22.90;99.90;;;;;;5062552;28;20040;-78
2023/08/17 11:42:40;;;;;;;5.55;2.10;;;22.60;99.90;;;;;;5061034;28;20035;-77
2023/08/17 11:45:06;;;;;;;2.78;1.52;;;22.60;99.90;;;;;;5060394;28;20037;-77
2023/08/17 11:47:33;;;;;;;3.22;1.50;;;22.60;99.90;;;;;;5057692;28;20041;-77
2023/08/17 11:50:02;;;;;;;2.70;1.55;;;22.70;99.90;;;;;;5062415;28;20358;-77
2023/08/17 11:52:29;;;;;;;2.38;1.52;;;23.20;99.90;;;;;;5073436;28;20051;-78
2023/08/17 11:54:56;;;;;;;4.53;1.77;;;23.20;99.90;;;;;;5082259;28;20206;-76
2023/08/17 11:57:22;;;;;;;6.15;2.05;;;23.30;99.90;;;;;;5060017;28;20079;-77
2023/08/17 11:59:48;;;;;;;3.53;1.63;;;23.10;99.90;;;;;;5048431;28;20028;-78
2023/08/17 12:02:13;;;;;;;2.67;1.70;;;23.20;99.90;;;;;;5035956;28;20028;-76
2023/08/17 12:04:39;;;;;;;3.05;1.52;;;23.40;99.90;;;;;;5060825;28;20051;-78
2023/08/17 12:07:05;;;;;;;2.85;1.40;;;23.90;99.90;;;;;;5065622;28;20036;-77
2023/08/17 12:09:34;;;;;;;4.53;1.75;;;23.90;99.90;;;;;;5049100;28;20031;-77
2023/08/17 12:12:01;;;;;;;3.85;1.65;;;23.80;99.90;;;;;;5081619;28;20077;-77
2023/08/17 12:14:30;;;;;;;4.03;1.90;;;23.90;99.90;;;;;;5046361;28;20075;-76
2023/08/17 12:16:57;;;;;;;3.65;1.60;;;23.60;99.90;;;;;;5070852;28;20032;-77
2023/08/17 12:19:25;;;;;;;3.13;1.65;;;23.00;99.90;;;;;;5075779;28;20447;-76
2023/08/17 12:21:51;;;;;;;3.22;1.63;;;23.30;99.90;;;;;;5067052;28;20032;-77
2023/08/17 12:24:19;;;;;;;2.80;1.80;;;23.20;99.90;;;;;;5079709;28;20210;-77
2023/08/17 12:26:46;;;;;;;3.72;1.75;;;23.60;99.90;;;;;;5065335;28;20028;-76
2023/08/17 12:29:12;;;;;;;3.03;1.58;;;23.60;99.90;;;;;;5072759;28;20032;-76
2023/08/17 12:31:38;;;;;;;5.07;2.33;;;23.30;99.90;;;;;;5064160;28;20199;-76
2023/08/17 12:34:05;;;;;;;6.47;2.00;;;23.20;99.90;;;;;;5081336;28;20067;-76
2023/08/17 12:36:32;;;;;;;3.38;1.98;;;23.20;99.90;;;;;;5064972;28;20020;-76
2023/08/17 12:38:58;;;;;;;5.13;2.00;;;23.20;99.90;;;;;;5077847;28;20036;-77
2023/08/17 12:41:23;;;;;;;3.28;1.90;;;23.00;99.90;;;;;;5050129;28;20039;-77
2023/08/17 12:43:49;;;;;;;3.33;1.70;;;23.00;99.90;;;;;;5062186;28;20195;-76
2023/08/17 12:46:15;;;;;;;2.75;1.58;;;22.90;99.90;;;;;;5044735;28;20040;-78